createdAt,value
2018-09-28T00:00:25.533Z,12.07
2018-09-28T00:02:52.908Z,12.95
2018-09-28T00:05:20.275Z,12.60
2018-09-28T00:07:47.574Z,12.65
2018-09-28T00:10:14.937Z,12.03
2018-09-28T00:12:42.226Z,13.60
2018-09-28T00:15:09.790Z,14.55
2018-09-28T00:17:37.156Z,13.60
2018-09-28T00:20:04.557Z,11.93
2018-09-28T00:22:31.868Z,14.20
2018-09-28T00:24:59.243Z,12.85
2018-09-28T00:27:26.585Z,12.68
2018-09-28T00:29:54.602Z,13.20
2018-09-28T00:32:22.179Z,12.95
2018-09-28T00:34:49.995Z,12.60
2018-09-28T00:37:17.642Z,11.97
2018-09-28T00:39:46.406Z,13.60
2018-09-28T00:42:13.742Z,12.82
2018-09-28T00:44:41.063Z,13.32
2018-09-28T00:47:08.827Z,12.95
2018-09-28T00:49:36.134Z,13.03
2018-09-28T00:52:03.757Z,11.45
2018-09-28T00:54:31.098Z,13.45
2018-09-28T00:56:58.427Z,12.23
2018-09-28T00:59:25.740Z,12.53
2018-09-28T01:01:54.726Z,12.60
2018-09-28T01:04:22.519Z,13.85
2018-09-28T01:06:49.841Z,12.13
2018-09-28T01:09:17.577Z,14.00
2018-09-28T01:11:45.590Z,13.83
2018-09-28T01:14:12.904Z,15.03
2018-09-28T01:16:40.576Z,16.20
2018-09-28T01:19:08.266Z,15.13
2018-09-28T01:21:35.644Z,14.68
2018-09-28T01:24:02.973Z,15.23
2018-09-28T01:26:30.825Z,15.68
2018-09-28T01:28:58.157Z,16.45
2018-09-28T01:31:26.162Z,16.55
2018-09-28T01:33:53.501Z,18.95
2018-09-28T01:36:20.853Z,16.50
2018-09-28T01:38:48.287Z,16.62
2018-09-28T01:41:15.950Z,18.80
2018-09-28T01:43:43.783Z,17.02
2018-09-28T01:46:11.124Z,18.20
2018-09-28T01:48:38.848Z,18.48
2018-09-28T01:51:06.206Z,18.35
2018-09-28T01:53:33.546Z,18.12
2018-09-28T01:56:01.103Z,17.87
2018-09-28T01:58:28.695Z,18.67
2018-09-28T02:00:56.115Z,20.57
2018-09-28T02:03:23.692Z,19.45
2018-09-28T02:05:51.023Z,19.00
2018-09-28T02:08:18.574Z,18.25
2018-09-28T02:10:49.163Z,19.57
2018-09-28T02:13:16.859Z,19.77
2018-09-28T02:15:44.264Z,18.60
2018-09-28T02:18:11.642Z,19.23
2018-09-28T02:20:39.220Z,20.52
2018-09-28T02:23:06.596Z,19.77
2018-09-28T02:25:34.002Z,18.62
2018-09-28T02:28:01.596Z,20.70
2018-09-28T02:30:28.941Z,18.45
2018-09-28T02:32:56.521Z,18.85
2018-09-28T02:35:23.935Z,19.95
2018-09-28T02:37:51.490Z,20.17
2018-09-28T02:40:18.848Z,19.25
2018-09-28T02:42:46.205Z,20.92
2018-09-28T02:45:13.749Z,21.00
2018-09-28T02:47:41.178Z,22.17
2018-09-28T02:50:08.786Z,23.00
2018-09-28T02:52:36.391Z,22.30
2018-09-28T02:55:03.746Z,21.97
2018-09-28T02:57:31.100Z,23.70
2018-09-28T02:59:58.439Z,23.20
2018-09-28T03:02:25.798Z,23.70
2018-09-28T03:04:55.430Z,23.87
2018-09-28T03:07:23.206Z,23.80
2018-09-28T03:09:52.083Z,24.77
2018-09-28T03:12:19.414Z,25.48
2018-09-28T03:14:46.755Z,24.02
2018-09-28T03:17:14.329Z,25.10
2018-09-28T03:19:41.646Z,26.85
2018-09-28T03:22:08.970Z,27.15
2018-09-28T03:24:36.563Z,25.60
2018-09-28T03:27:04.483Z,25.90
2018-09-28T03:29:31.829Z,27.58
2018-09-28T03:31:59.186Z,25.85
2018-09-28T03:34:26.556Z,24.65
2018-09-28T03:36:53.987Z,27.67
2018-09-28T03:39:21.335Z,23.55
2018-09-28T03:41:48.705Z,24.32
2018-09-28T03:44:16.088Z,29.48
2018-09-28T03:46:43.646Z,26.27
2018-09-28T03:49:11.356Z,28.57
2018-09-28T03:51:39.004Z,29.48
2018-09-28T03:54:07.174Z,27.80
2018-09-28T03:56:34.502Z,29.77
2018-09-28T03:59:02.143Z,28.80
2018-09-28T04:01:29.711Z,29.70
2018-09-28T04:03:57.309Z,30.23
2018-09-28T04:06:25.199Z,27.90
2018-09-28T04:08:52.511Z,27.15
2018-09-28T04:11:20.103Z,32.23
2018-09-28T04:13:47.450Z,30.82
2018-09-28T04:16:14.767Z,31.80
2018-09-28T04:18:42.087Z,30.65
2018-09-28T04:21:09.419Z,33.13
2018-09-28T04:23:36.972Z,29.87
2018-09-28T04:26:04.326Z,33.25
2018-09-28T04:28:31.660Z,30.97
2018-09-28T04:30:59.035Z,32.35
2018-09-28T04:33:26.627Z,32.95
2018-09-28T04:35:54.191Z,34.60
2018-09-28T04:38:21.538Z,30.25
2018-09-28T04:40:48.855Z,31.95
2018-09-28T04:43:16.170Z,32.00
2018-09-28T04:45:43.576Z,30.62
2018-09-28T04:48:10.870Z,31.07
2018-09-28T04:50:38.739Z,31.30
2018-09-28T04:53:07.038Z,33.50
2018-09-28T04:55:34.785Z,31.73
2018-09-28T04:58:02.411Z,30.90
2018-09-28T05:00:30.145Z,31.57
2018-09-28T05:02:57.561Z,33.88
2018-09-28T05:05:24.933Z,33.08
2018-09-28T05:07:52.363Z,31.75
2018-09-28T05:10:19.916Z,33.60
2018-09-28T05:12:47.230Z,31.75
2018-09-28T05:15:14.589Z,29.67
2018-09-28T05:17:41.956Z,30.05
2018-09-28T05:20:10.045Z,26.73
2018-09-28T05:22:37.577Z,25.40
2018-09-28T05:25:05.173Z,23.77
2018-09-28T05:27:32.619Z,23.05
2018-09-28T05:29:59.949Z,21.68
2018-09-28T05:32:28.915Z,18.50
2018-09-28T05:34:56.391Z,15.35
2018-09-28T05:37:24.028Z,13.78
2018-09-28T05:39:51.312Z,14.80
2018-09-28T05:42:18.917Z,15.40
2018-09-28T05:44:46.383Z,13.20
2018-09-28T05:47:13.970Z,12.40
2018-09-28T05:49:41.290Z,10.85
2018-09-28T05:52:08.643Z,9.85
2018-09-28T05:54:36.188Z,8.43
2018-09-28T05:57:03.562Z,8.23
2018-09-28T05:59:36.241Z,7.83
2018-09-28T06:02:09.001Z,6.28
2018-09-28T06:04:41.701Z,6.28
2018-09-28T06:07:09.058Z,5.35
2018-09-28T06:09:36.680Z,6.25
2018-09-28T06:12:04.306Z,4.85
2018-09-28T06:14:31.666Z,4.22
2018-09-28T06:16:59.270Z,4.90
2018-09-28T06:19:26.641Z,5.33
2018-09-28T06:21:54.014Z,4.28
2018-09-28T06:24:21.569Z,3.92
2018-09-28T06:26:48.920Z,4.10
2018-09-28T06:29:16.501Z,4.08
2018-09-28T06:31:44.046Z,3.70
2018-09-28T06:34:11.888Z,3.83
2018-09-28T06:36:39.502Z,3.95
2018-09-28T06:39:07.394Z,3.58
2018-09-28T06:41:34.831Z,5.37
2018-09-28T06:44:02.220Z,3.55
2018-09-28T06:46:29.785Z,3.50
2018-09-28T06:48:57.226Z,5.03
2018-09-28T06:51:24.775Z,3.90
2018-09-28T06:53:52.075Z,3.90
2018-09-28T06:56:19.401Z,3.87
2018-09-28T06:58:47.054Z,3.42
2018-09-28T07:01:14.409Z,3.95
2018-09-28T07:03:42.108Z,3.90
2018-09-28T07:06:09.520Z,4.95
2018-09-28T07:08:36.914Z,4.33
2018-09-28T07:11:04.339Z,4.08
2018-09-28T07:13:31.694Z,3.50
2018-09-28T07:15:59.133Z,3.58
2018-09-28T07:18:26.645Z,3.35
2018-09-28T07:20:54.152Z,4.10
2018-09-28T07:23:21.732Z,4.10
2018-09-28T07:25:49.368Z,3.87
2018-09-28T07:28:16.959Z,4.05
2018-09-28T07:30:44.534Z,4.50
2018-09-28T07:33:12.168Z,4.12
2018-09-28T07:35:39.796Z,4.50
2018-09-28T07:38:07.173Z,3.85
2018-09-28T07:40:34.543Z,3.87
2018-09-28T07:43:01.953Z,3.75
2018-09-28T07:45:29.503Z,4.58
2018-09-28T07:47:56.931Z,5.42
2018-09-28T07:50:24.277Z,4.20
2018-09-28T07:52:51.868Z,3.90
2018-09-28T07:55:19.227Z,4.30
2018-09-28T07:57:46.850Z,3.72
2018-09-28T08:00:14.196Z,4.22
2018-09-28T08:02:41.764Z,4.00
2018-09-28T08:05:09.179Z,3.30
2018-09-28T08:07:37.120Z,4.62
2018-09-28T08:10:04.963Z,4.40
2018-09-28T08:12:32.871Z,3.90
2018-09-28T08:15:00.483Z,4.75
2018-09-28T08:17:27.807Z,4.30
2018-09-28T08:19:55.125Z,4.30
2018-09-28T08:22:22.508Z,4.55
2018-09-28T08:24:49.929Z,4.45
2018-09-28T08:27:18.401Z,3.30
2018-09-28T08:29:45.717Z,3.77
2018-09-28T08:32:13.081Z,4.97
2018-09-28T08:34:40.682Z,4.37
2018-09-28T08:37:08.317Z,5.05
2018-09-28T08:39:36.467Z,4.60
2018-09-28T08:42:03.823Z,4.40
2018-09-28T08:44:31.486Z,4.00
2018-09-28T08:46:58.813Z,3.40
2018-09-28T08:49:26.953Z,4.40
2018-09-28T08:51:54.329Z,4.37
2018-09-28T08:54:22.029Z,3.73
2018-09-28T08:56:49.376Z,4.80
2018-09-28T08:59:16.774Z,4.87
2018-09-28T09:01:44.128Z,4.00
2018-09-28T09:04:11.502Z,4.83
2018-09-28T09:06:38.880Z,4.27
2018-09-28T09:09:07.898Z,3.60
2018-09-28T09:11:35.237Z,5.07
2018-09-28T09:14:02.786Z,4.27
2018-09-28T09:16:30.138Z,4.30
2018-09-28T09:18:57.500Z,4.20
2018-09-28T09:21:24.923Z,4.10
2018-09-28T09:23:52.537Z,4.50
2018-09-28T09:26:19.878Z,4.33
2018-09-28T09:28:47.224Z,4.20
2018-09-28T09:31:14.694Z,4.70
2018-09-28T09:33:42.042Z,4.77
2018-09-28T09:36:09.437Z,4.40
2018-09-28T09:38:36.859Z,4.00
2018-09-28T09:41:04.214Z,4.03
2018-09-28T09:43:32.078Z,4.30
2018-09-28T09:46:00.170Z,4.27
2018-09-28T09:48:27.791Z,4.47
2018-09-28T09:50:55.870Z,4.53
2018-09-28T09:53:23.808Z,5.37
2018-09-28T09:55:51.491Z,5.47
2018-09-28T09:58:18.927Z,5.10
2018-09-28T10:00:51.772Z,4.33
2018-09-28T10:03:24.611Z,4.47
2018-09-28T10:05:52.484Z,4.73
2018-09-28T10:08:20.761Z,4.50
2018-09-28T10:10:48.441Z,4.70
2018-09-28T10:13:15.769Z,4.73
2018-09-28T10:15:43.835Z,4.27
2018-09-28T10:18:11.277Z,3.97
2018-09-28T10:20:39.577Z,4.43
2018-09-28T10:23:07.765Z,5.07
2018-09-28T10:25:35.098Z,4.17
2018-09-28T10:28:03.018Z,4.60
2018-09-28T10:30:33.224Z,5.23
2018-09-28T10:33:02.197Z,4.83
2018-09-28T10:35:30.782Z,4.53
2018-09-28T10:37:58.738Z,4.70
2018-09-28T10:40:27.677Z,4.50
2018-09-28T10:42:56.504Z,3.77
2018-09-28T10:45:26.006Z,3.33
2018-09-28T10:47:54.375Z,3.97
2018-09-28T10:50:22.386Z,4.53
2018-09-28T10:52:50.077Z,3.63
2018-09-28T10:55:17.370Z,3.50
2018-09-28T10:57:45.880Z,3.20
2018-09-28T11:00:13.562Z,3.30
2018-09-28T11:02:40.913Z,3.80
2018-09-28T11:05:10.840Z,3.30
2018-09-28T11:07:39.030Z,3.47
2018-09-28T11:10:10.477Z,3.57
2018-09-28T11:12:40.064Z,3.47
2018-09-28T11:15:08.871Z,3.10
2018-09-28T11:17:37.579Z,3.23
2018-09-28T11:20:05.210Z,3.50
2018-09-28T11:22:34.368Z,3.40
2018-09-28T11:25:02.763Z,3.17
2018-09-28T11:27:33.343Z,3.50
2018-09-28T11:30:01.373Z,3.80
2018-09-28T11:32:29.024Z,3.27
2018-09-28T11:34:56.372Z,3.50
2018-09-28T11:37:23.737Z,3.23
2018-09-28T11:39:51.717Z,4.03
2018-09-28T11:42:19.210Z,3.00
2018-09-28T11:44:46.602Z,3.17
2018-09-28T11:47:14.162Z,3.23
2018-09-28T11:49:41.552Z,3.70
2018-09-28T11:52:08.938Z,3.10
2018-09-28T11:54:36.543Z,3.63
2018-09-28T11:57:06.256Z,3.47
2018-09-28T11:59:37.114Z,3.03
2018-09-28T12:02:06.393Z,3.23
2018-09-28T12:04:34.360Z,2.97
2018-09-28T12:07:03.548Z,3.50
2018-09-28T12:09:31.871Z,3.20
2018-09-28T12:12:00.333Z,3.00
2018-09-28T12:14:27.679Z,3.30
2018-09-28T12:16:55.511Z,3.00
2018-09-28T12:19:22.891Z,3.10
2018-09-28T12:21:50.303Z,3.63
2018-09-28T12:24:17.652Z,3.20
2018-09-28T12:26:45.184Z,3.20
2018-09-28T12:29:12.755Z,3.07
2018-09-28T12:31:40.310Z,2.93
2018-09-28T12:34:07.726Z,3.17
2018-09-28T12:36:35.150Z,2.77
2018-09-28T12:39:02.538Z,2.23
2018-09-28T12:41:29.959Z,2.90
2018-09-28T12:43:57.348Z,2.57
2018-09-28T12:46:24.666Z,2.97
2018-09-28T12:48:52.096Z,2.80
2018-09-28T12:51:19.442Z,2.83
2018-09-28T12:53:46.842Z,2.40
2018-09-28T12:56:15.163Z,2.80
2018-09-28T12:58:42.695Z,3.03
2018-09-28T13:01:10.152Z,2.60
2018-09-28T13:03:38.804Z,3.30
2018-09-28T13:06:06.240Z,3.00
2018-09-28T13:08:33.691Z,2.87
2018-09-28T13:11:01.165Z,2.67
2018-09-28T13:13:28.746Z,3.00
2018-09-28T13:15:56.132Z,3.20
2018-09-28T13:18:23.883Z,3.50
2018-09-28T13:20:51.260Z,2.73
2018-09-28T13:23:19.646Z,2.53
2018-09-28T13:25:47.192Z,2.80
2018-09-28T13:28:14.779Z,2.50
2018-09-28T13:30:42.373Z,2.83
2018-09-28T13:33:09.856Z,2.83
2018-09-28T13:35:37.285Z,3.23
2018-09-28T13:38:06.133Z,3.10
2018-09-28T13:40:33.677Z,2.40
2018-09-28T13:43:01.560Z,2.40
2018-09-28T13:45:29.381Z,2.70
2018-09-28T13:47:58.240Z,2.77
2018-09-28T13:50:25.616Z,3.23
2018-09-28T13:52:53.884Z,3.63
2018-09-28T13:55:21.285Z,3.03
2018-09-28T13:57:48.753Z,3.30
2018-09-28T14:00:16.132Z,2.90
2018-09-28T14:02:43.869Z,2.70
2018-09-28T14:05:11.195Z,3.50
2018-09-28T14:07:38.502Z,3.03
2018-09-28T14:10:06.982Z,3.27
2018-09-28T14:12:34.696Z,2.87
2018-09-28T14:15:02.022Z,3.52
2018-09-28T14:17:29.389Z,3.25
2018-09-28T14:19:56.785Z,2.77
2018-09-28T14:22:24.215Z,3.20
2018-09-28T14:24:51.810Z,2.50
2018-09-28T14:27:19.199Z,2.92
2018-09-28T14:29:47.156Z,2.70
2018-09-28T14:32:15.171Z,2.70
2018-09-28T14:34:42.599Z,2.77
2018-09-28T14:37:10.169Z,2.77
2018-09-28T14:39:37.511Z,2.65
2018-09-28T14:42:04.853Z,2.62
2018-09-28T14:44:32.215Z,2.40
2018-09-28T14:46:59.851Z,3.62
2018-09-28T14:49:27.468Z,2.30
2018-09-28T14:51:55.099Z,2.42
2018-09-28T14:54:22.723Z,2.22
2018-09-28T14:56:50.137Z,3.52
2018-09-28T14:59:17.674Z,3.27
2018-09-28T15:01:45.292Z,3.37
2018-09-28T15:04:12.623Z,2.65
2018-09-28T15:06:40.437Z,2.60
2018-09-28T15:09:07.806Z,2.98
2018-09-28T15:11:36.160Z,2.70
2018-09-28T15:14:03.805Z,2.80
2018-09-28T15:16:31.194Z,3.10
2018-09-28T15:18:58.530Z,2.83
2018-09-28T15:21:25.880Z,3.27
2018-09-28T15:23:53.561Z,2.75
2018-09-28T15:26:20.884Z,2.62
2018-09-28T15:28:48.461Z,3.85
2018-09-28T15:31:15.798Z,3.10
2018-09-28T15:33:43.358Z,2.80
2018-09-28T15:36:10.714Z,2.70
2018-09-28T15:38:38.083Z,2.90
2018-09-28T15:41:05.703Z,2.70
2018-09-28T15:43:33.025Z,2.67
2018-09-28T15:46:01.563Z,2.40
2018-09-28T15:48:29.089Z,2.75
2018-09-28T15:50:56.650Z,2.50
2018-09-28T15:53:24.158Z,2.45
2018-09-28T15:55:51.624Z,2.20
2018-09-28T15:58:19.095Z,2.25
2018-09-28T16:00:46.676Z,2.60
2018-09-28T16:03:14.224Z,2.10
2018-09-28T16:05:41.795Z,2.30
2018-09-28T16:08:10.036Z,2.35
2018-09-28T16:10:37.618Z,2.60
2018-09-28T16:13:05.139Z,2.65
2018-09-28T16:15:32.548Z,2.30
2018-09-28T16:18:00.167Z,3.50
2018-09-28T16:20:27.501Z,2.42
2018-09-28T16:22:55.425Z,2.80
2018-09-28T16:25:22.915Z,2.70
2018-09-28T16:27:50.515Z,3.33
2018-09-28T16:30:18.111Z,2.92
2018-09-28T16:32:45.666Z,2.90
2018-09-28T16:35:13.195Z,2.67
2018-09-28T16:37:40.771Z,2.55
2018-09-28T16:40:08.331Z,2.95
2018-09-28T16:42:35.967Z,2.65
2018-09-28T16:45:03.811Z,3.05
2018-09-28T16:47:31.410Z,3.12
2018-09-28T16:49:58.996Z,3.75
2018-09-28T16:52:27.211Z,3.30
2018-09-28T16:54:54.766Z,3.30
2018-09-28T16:57:22.621Z,3.12
2018-09-28T16:59:55.025Z,2.72
2018-09-28T17:02:22.725Z,3.15
2018-09-28T17:04:50.276Z,3.10
2018-09-28T17:07:17.812Z,3.75
2018-09-28T17:09:45.341Z,2.65
2018-09-28T17:12:12.940Z,2.83
2018-09-28T17:14:41.902Z,2.95
2018-09-28T17:17:09.449Z,2.80
2018-09-28T17:19:38.785Z,2.90
2018-09-28T17:22:06.381Z,3.30
2018-09-28T17:24:33.902Z,3.65
2018-09-28T17:27:16.305Z,2.83
2018-09-28T17:29:47.156Z,2.65
2018-09-28T17:32:16.621Z,2.58
2018-09-28T17:34:46.541Z,2.75
2018-09-28T17:37:16.745Z,2.50
2018-09-28T17:39:48.142Z,3.42
2018-09-28T17:42:18.832Z,2.50
2018-09-28T17:44:48.675Z,3.00
2018-09-28T17:47:19.640Z,3.00
2018-09-28T17:49:49.397Z,3.05
2018-09-28T17:52:19.471Z,2.85
2018-09-28T17:54:49.523Z,2.52
2018-09-28T17:57:17.205Z,3.83
2018-09-28T17:59:48.519Z,4.10
2018-09-28T18:02:16.175Z,3.40
2018-09-28T18:04:43.896Z,3.35
2018-09-28T18:07:11.406Z,2.90
2018-09-28T18:09:40.225Z,3.45
2018-09-28T18:12:07.959Z,2.60
2018-09-28T18:14:35.502Z,2.77
2018-09-28T18:17:03.105Z,2.67
2018-09-28T18:19:30.635Z,3.02
2018-09-28T18:21:58.228Z,2.75
2018-09-28T18:24:26.028Z,3.02
2018-09-28T18:26:53.696Z,3.27
2018-09-28T18:29:21.422Z,2.90
2018-09-28T18:31:49.491Z,3.00
2018-09-28T18:34:17.034Z,2.70
2018-09-28T18:36:45.186Z,2.52
2018-09-28T18:39:13.263Z,2.90
2018-09-28T18:41:42.140Z,3.05
2018-09-28T18:44:09.726Z,3.25
2018-09-28T18:46:37.232Z,4.00
2018-09-28T18:49:04.818Z,2.92
2018-09-28T18:51:32.329Z,3.95
2018-09-28T18:54:00.018Z,3.17
2018-09-28T18:56:34.191Z,2.87
2018-09-28T18:59:02.030Z,2.95
2018-09-28T19:01:37.708Z,4.12
2018-09-28T19:04:05.747Z,2.90
2018-09-28T19:06:33.224Z,3.55
2018-09-28T19:09:00.669Z,3.87
2018-09-28T19:11:28.142Z,2.85
2018-09-28T19:13:56.982Z,4.75
2018-09-28T19:16:24.457Z,3.12
2018-09-28T19:18:51.851Z,3.92
2018-09-28T19:21:19.444Z,2.90
2018-09-28T19:23:47.444Z,3.00
2018-09-28T19:26:14.914Z,3.60
2018-09-28T19:28:42.844Z,3.12
2018-09-28T19:31:11.763Z,3.50
2018-09-28T19:33:39.819Z,3.67
2018-09-28T19:36:07.811Z,3.47
2018-09-28T19:38:36.453Z,3.30
2018-09-28T19:41:04.017Z,3.40
2018-09-28T19:43:31.470Z,3.05
2018-09-28T19:45:58.974Z,4.12
2018-09-28T19:48:26.367Z,3.00
2018-09-28T19:50:53.787Z,3.55
2018-09-28T19:53:21.292Z,3.10
2018-09-28T19:55:48.743Z,3.55
2018-09-28T19:58:17.676Z,3.85
2018-09-28T20:00:45.257Z,4.03
2018-09-28T20:03:12.769Z,3.17
2018-09-28T20:05:40.199Z,3.85
2018-09-28T20:08:07.820Z,2.75
2018-09-28T20:10:35.255Z,3.30
2018-09-28T20:13:02.883Z,3.65
2018-09-28T20:15:30.263Z,3.45
2018-09-28T20:17:57.748Z,3.37
2018-09-28T20:20:25.310Z,3.65
2018-09-28T20:22:52.714Z,2.95
2018-09-28T20:25:20.230Z,3.45
2018-09-28T20:27:48.537Z,3.15
2018-09-28T20:30:16.319Z,3.35
2018-09-28T20:32:43.834Z,3.27
2018-09-28T20:35:11.429Z,3.72
2018-09-28T20:37:38.929Z,3.87
2018-09-28T20:40:08.057Z,3.55
2018-09-28T20:42:35.882Z,3.50
2018-09-28T20:45:05.222Z,3.70
2018-09-28T20:47:34.004Z,4.30
2018-09-28T20:50:02.037Z,3.87
2018-09-28T20:52:31.815Z,5.97
2018-09-28T20:55:00.580Z,4.95
2018-09-28T20:57:30.872Z,4.60
2018-09-28T21:00:00.955Z,4.53
2018-09-28T21:02:28.639Z,4.03
2018-09-28T21:04:58.013Z,3.55
2018-09-28T21:07:26.461Z,3.70
2018-09-28T21:09:55.913Z,4.05
2018-09-28T21:12:25.079Z,4.70
2018-09-28T21:14:53.232Z,3.90
2018-09-28T21:17:21.632Z,3.80
2018-09-28T21:19:49.656Z,4.55
2018-09-28T21:22:17.547Z,5.17
2018-09-28T21:24:47.803Z,4.58
2018-09-28T21:27:18.239Z,3.87
2018-09-28T21:29:47.111Z,4.53
2018-09-28T21:32:17.228Z,4.10
2018-09-28T21:34:46.903Z,4.15
2018-09-28T21:37:16.542Z,4.05
2018-09-28T21:39:47.295Z,4.60
2018-09-28T21:42:17.083Z,3.75
2018-09-28T21:44:46.498Z,3.42
2018-09-28T21:47:13.954Z,3.58
2018-09-28T21:49:41.312Z,3.60
2018-09-28T21:52:08.687Z,4.90
2018-09-28T21:54:36.057Z,4.97
2018-09-28T21:57:03.435Z,4.30
2018-09-28T21:59:31.054Z,3.47
2018-09-28T22:01:58.690Z,3.77
2018-09-28T22:04:26.054Z,4.05
2018-09-28T22:06:53.405Z,4.47
2018-09-28T22:09:20.985Z,3.35
2018-09-28T22:11:48.383Z,4.00
2018-09-28T22:14:15.959Z,4.03
2018-09-28T22:16:43.348Z,4.10
2018-09-28T22:19:10.779Z,3.37
2018-09-28T22:21:38.188Z,3.67
2018-09-28T22:24:06.737Z,4.62
2018-09-28T22:26:34.162Z,4.17
2018-09-28T22:29:01.511Z,4.75
2018-09-28T22:31:28.865Z,4.05
2018-09-28T22:33:56.262Z,4.20
2018-09-28T22:36:23.588Z,4.20
2018-09-28T22:38:51.453Z,3.92
2018-09-28T22:41:19.035Z,5.10
2018-09-28T22:43:46.713Z,5.35
2018-09-28T22:46:14.027Z,4.45
2018-09-28T22:48:41.897Z,4.40
2018-09-28T22:51:09.495Z,4.15
2018-09-28T22:53:37.094Z,3.62
2018-09-28T22:56:04.450Z,3.90
2018-09-28T22:58:32.239Z,4.05
2018-09-28T23:00:59.647Z,4.42
2018-09-28T23:03:26.939Z,3.80
2018-09-28T23:05:54.318Z,3.80
2018-09-28T23:08:22.807Z,4.40
2018-09-28T23:10:50.770Z,4.65
2018-09-28T23:13:18.507Z,4.37
2018-09-28T23:15:46.156Z,5.28
2018-09-28T23:18:14.139Z,4.20
2018-09-28T23:20:41.931Z,5.00
2018-09-28T23:23:09.334Z,3.87
2018-09-28T23:25:36.693Z,4.50
2018-09-28T23:28:04.042Z,3.65
2018-09-28T23:30:31.456Z,4.53
2018-09-28T23:32:59.032Z,4.33
2018-09-28T23:35:26.383Z,3.95
2018-09-28T23:37:54.231Z,3.70
2018-09-28T23:40:21.855Z,4.50
2018-09-28T23:42:49.188Z,3.90
2018-09-28T23:45:16.579Z,4.42
2018-09-28T23:47:43.939Z,4.65
2018-09-28T23:50:11.325Z,4.20
2018-09-28T23:52:38.665Z,4.00
2018-09-28T23:55:06.057Z,4.30
2018-09-28T23:57:33.643Z,4.72
